Aérodrome :
LOGIN :

S'inscrire | Disclaimer

   EN    FR    IT 

 










Légende :    VFR   VFR Marginal   IFR   IFR Intensif   IFR Très Intensif
Visi : 
Plafond : 
>= 8 km
>= 3000ft
5 à 8 km
1000 à 3000 ft
1500m à 5 km
500 à 1000 ft
800 à 1500m
200 à 500 ft
< 800m
< 200 ft
Symboles :   Orages  Brouillard  Fortes neiges  Fortes précipitations  Vent > 20 kt
SIGMETs :   Divers  Orages  Givrage  Turbulence  Onde Orograph.  Cendres Volcan.







- Altitude de l'aérodrome : 659 ft
- Code IATA : LYN
- Voir les cartes d'approche


LFLY - Lyon Bron

DERNIER METAR :
  • 192030Z AUTO 34004KT 9999 BKN037 OVC082 12/09 Q1023 NOSIG

METARs EXPIRÉS :
  • 192000Z AUTO 33005KT 9999 BKN035 OVC082 12/10 Q1023 NOSIG
  • 191930Z AUTO VRB02KT 9999 BKN030 BKN035 BKN047 12/10 Q1023 NOSIG
  • 191900Z AUTO VRB03KT 9999 FEW034 BKN064 OVC074 12/09 Q1022 TEMPO 4000 SHRA SCT025TCU
  • 191830Z AUTO 01005KT 340V050 9999 BKN037 BKN062 OVC072 13/10 Q1022 TEMPO 4000 SHRA SCT025TCU
  • 191800Z AUTO VRB03KT 9999 BKN043 BKN072 OVC082 13/10 Q1022 TEMPO 4000 SHRA SCT025TCU
  • 191730Z AUTO 05003KT 9999 SCT042/// BKN056/// OVC072/// ///TCU 13/10 Q1021 BECMG 33010KT FEW025 BKN035

TAF TAF LFLY
Valide du 19 à 18h jusqu'au 20 à 18h UTC


191700Z 1918/2018 36005KT 9999 SCT025 BKN035
PROB30
TEMPO 1918/1920 4000 SHRA SCT025TCU
TEMPO 2003/2009 VRB02KT 5000 BR BKN010
PROB30
TEMPO 2003/2007 0800 FG BKN001
BECMG 2012/2014 CAVOK
ATIS : +33 4 72 15 87 96
Pas de NOTAMs connus pour ce terrain.
2 SIGMETs publiés pour la FIR Marseille (LFMM) :
 
Turbulence forte
LFMM SIGMET 13 VALID 192000/200000 LFPW
LFMM MARSEILLE FIR/UIR SEV TURB FCST WI N4300 E00500 - N4330 E00500 - N4145 E00715 - N4130 E00645 SFC/FL050 STNR WKN=
Turbulence forte
LFMM SIGMET 12 VALID 192000/200000 LFPW
LFMM MARSEILLE FIR/UIR SEV TURB FCST WI N4115 E00915 - N4115 E00800 - N4100 E00800 - N4330 E00545 - N4345 E00700 FL200/320 MOV E 30KT WKN=



MET'MAP, la Météo Aéronautique d'un coup d'oeil ! - Copyright ORBIFLY Décembre 2007 - Disclaimer

ORBIFLY MET'MAP TEAM :

Programmation & Développement : Alexandra Zaïnal
Conception & Développement : Baudouin d'Aumeries
Co-Programmation & Développement : Marc-Olivier Méhu
Soutien technique & logistique : Manuel Goepfert

Contact : metmap@orbifly.com




SOURCES & CREDITS :

   NOAA